sensor_id;sensor_type;location;lat;lon;timestamp;P1;durP1;ratioP1;P2;durP2;ratioP2
15629;SDS011;7914;50.842;0.166;2022-08-21T00:02:19;9.30;;;3.30;;
15629;SDS011;7914;50.842;0.166;2022-08-21T00:04:47;8.50;;;2.97;;
15629;SDS011;7914;50.842;0.166;2022-08-21T00:07:15;10.93;;;3.73;;
15629;SDS011;7914;50.842;0.166;2022-08-21T00:09:42;9.17;;;3.87;;
15629;SDS011;7914;50.842;0.166;2022-08-21T00:12:08;11.00;;;3.50;;
15629;SDS011;7914;50.842;0.166;2022-08-21T00:14:34;10.33;;;3.40;;
15629;SDS011;7914;50.842;0.166;2022-08-21T00:17:00;7.40;;;3.00;;
15629;SDS011;7914;50.842;0.166;2022-08-21T00:19:27;9.03;;;3.13;;
15629;SDS011;7914;50.842;0.166;2022-08-21T00:21:53;11.97;;;3.50;;
15629;SDS011;7914;50.842;0.166;2022-08-21T00:24:20;8.73;;;3.20;;
15629;SDS011;7914;50.842;0.166;2022-08-21T00:26:47;12.60;;;3.47;;
15629;SDS011;7914;50.842;0.166;2022-08-21T00:29:13;8.30;;;3.03;;
15629;SDS011;7914;50.842;0.166;2022-08-21T00:31:40;8.77;;;3.30;;
15629;SDS011;7914;50.842;0.166;2022-08-21T00:34:07;11.40;;;3.97;;
15629;SDS011;7914;50.842;0.166;2022-08-21T00:36:33;11.77;;;3.77;;
15629;SDS011;7914;50.842;0.166;2022-08-21T00:38:59;10.47;;;3.90;;
15629;SDS011;7914;50.842;0.166;2022-08-21T00:41:25;8.87;;;3.40;;
15629;SDS011;7914;50.842;0.166;2022-08-21T00:43:52;10.70;;;3.63;;
15629;SDS011;7914;50.842;0.166;2022-08-21T00:46:18;11.43;;;3.50;;
15629;SDS011;7914;50.842;0.166;2022-08-21T00:48:44;12.57;;;3.77;;
15629;SDS011;7914;50.842;0.166;2022-08-21T00:51:16;9.30;;;3.70;;
15629;SDS011;7914;50.842;0.166;2022-08-21T00:53:48;13.03;;;3.67;;
15629;SDS011;7914;50.842;0.166;2022-08-21T00:56:17;10.27;;;3.60;;
15629;SDS011;7914;50.842;0.166;2022-08-21T00:58:46;7.40;;;3.00;;
15629;SDS011;7914;50.842;0.166;2022-08-21T01:01:13;13.30;;;3.93;;
15629;SDS011;7914;50.842;0.166;2022-08-21T01:03:39;15.30;;;4.23;;
15629;SDS011;7914;50.842;0.166;2022-08-21T01:06:05;10.53;;;3.80;;
15629;SDS011;7914;50.842;0.166;2022-08-21T01:08:32;7.97;;;3.70;;
15629;SDS011;7914;50.842;0.166;2022-08-21T01:10:58;7.27;;;3.77;;
15629;SDS011;7914;50.842;0.166;2022-08-21T01:13:26;10.67;;;4.23;;
15629;SDS011;7914;50.842;0.166;2022-08-21T01:15:55;8.97;;;3.83;;
15629;SDS011;7914;50.842;0.166;2022-08-21T01:18:24;8.17;;;3.83;;
15629;SDS011;7914;50.842;0.166;2022-08-21T01:21:11;11.10;;;4.07;;
15629;SDS011;7914;50.842;0.166;2022-08-21T01:23:41;8.13;;;3.93;;
15629;SDS011;7914;50.842;0.166;2022-08-21T01:26:09;9.30;;;3.73;;
15629;SDS011;7914;50.842;0.166;2022-08-21T01:28:55;9.37;;;4.03;;
15629;SDS011;7914;50.842;0.166;2022-08-21T01:31:26;12.13;;;3.33;;
15629;SDS011;7914;50.842;0.166;2022-08-21T01:33:54;17.23;;;4.17;;
15629;SDS011;7914;50.842;0.166;2022-08-21T01:36:21;11.33;;;4.37;;
15629;SDS011;7914;50.842;0.166;2022-08-21T01:38:47;11.60;;;4.03;;
15629;SDS011;7914;50.842;0.166;2022-08-21T01:41:14;11.53;;;4.33;;
15629;SDS011;7914;50.842;0.166;2022-08-21T01:43:41;7.87;;;3.70;;
15629;SDS011;7914;50.842;0.166;2022-08-21T01:46:08;9.87;;;4.23;;
15629;SDS011;7914;50.842;0.166;2022-08-21T01:48:35;10.80;;;3.93;;
15629;SDS011;7914;50.842;0.166;2022-08-21T01:51:01;7.33;;;3.80;;
15629;SDS011;7914;50.842;0.166;2022-08-21T01:53:27;11.50;;;3.80;;
15629;SDS011;7914;50.842;0.166;2022-08-21T01:55:53;10.47;;;4.30;;
15629;SDS011;7914;50.842;0.166;2022-08-21T01:58:18;9.43;;;4.30;;
15629;SDS011;7914;50.842;0.166;2022-08-21T02:00:44;11.40;;;4.03;;
15629;SDS011;7914;50.842;0.166;2022-08-21T02:03:10;11.00;;;3.90;;
15629;SDS011;7914;50.842;0.166;2022-08-21T02:05:35;10.27;;;4.00;;
15629;SDS011;7914;50.842;0.166;2022-08-21T02:08:01;10.00;;;4.00;;
15629;SDS011;7914;50.842;0.166;2022-08-21T02:10:29;11.23;;;4.33;;
15629;SDS011;7914;50.842;0.166;2022-08-21T02:12:57;10.37;;;4.10;;
15629;SDS011;7914;50.842;0.166;2022-08-21T02:15:24;8.13;;;3.40;;
15629;SDS011;7914;50.842;0.166;2022-08-21T02:17:52;9.63;;;3.57;;
15629;SDS011;7914;50.842;0.166;2022-08-21T02:20:25;8.67;;;3.40;;
15629;SDS011;7914;50.842;0.166;2022-08-21T02:22:56;9.17;;;3.77;;
15629;SDS011;7914;50.842;0.166;2022-08-21T02:25:22;8.37;;;3.70;;
15629;SDS011;7914;50.842;0.166;2022-08-21T02:27:49;7.57;;;3.60;;
15629;SDS011;7914;50.842;0.166;2022-08-21T02:30:30;12.60;;;4.00;;
15629;SDS011;7914;50.842;0.166;2022-08-21T02:32:58;10.17;;;4.17;;
15629;SDS011;7914;50.842;0.166;2022-08-21T02:35:24;9.50;;;3.70;;
15629;SDS011;7914;50.842;0.166;2022-08-21T02:37:58;7.97;;;3.50;;
15629;SDS011;7914;50.842;0.166;2022-08-21T02:40:26;8.63;;;3.70;;
15629;SDS011;7914;50.842;0.166;2022-08-21T02:42:55;7.87;;;3.53;;
15629;SDS011;7914;50.842;0.166;2022-08-21T02:45:21;7.23;;;3.10;;
15629;SDS011;7914;50.842;0.166;2022-08-21T02:47:50;7.60;;;3.43;;
15629;SDS011;7914;50.842;0.166;2022-08-21T02:50:20;7.57;;;3.30;;
15629;SDS011;7914;50.842;0.166;2022-08-21T02:52:51;9.70;;;3.73;;
15629;SDS011;7914;50.842;0.166;2022-08-21T02:55:21;10.90;;;3.67;;
15629;SDS011;7914;50.842;0.166;2022-08-21T02:57:48;10.13;;;3.47;;
15629;SDS011;7914;50.842;0.166;2022-08-21T03:00:14;12.17;;;3.63;;
15629;SDS011;7914;50.842;0.166;2022-08-21T03:02:41;10.07;;;3.37;;
15629;SDS011;7914;50.842;0.166;2022-08-21T03:05:07;8.00;;;3.40;;
15629;SDS011;7914;50.842;0.166;2022-08-21T03:07:35;7.13;;;3.30;;
15629;SDS011;7914;50.842;0.166;2022-08-21T03:10:02;6.63;;;3.50;;
15629;SDS011;7914;50.842;0.166;2022-08-21T03:12:29;10.63;;;3.10;;
15629;SDS011;7914;50.842;0.166;2022-08-21T03:14:54;11.13;;;3.47;;
15629;SDS011;7914;50.842;0.166;2022-08-21T03:17:20;8.17;;;3.37;;
15629;SDS011;7914;50.842;0.166;2022-08-21T03:19:46;7.60;;;3.10;;
15629;SDS011;7914;50.842;0.166;2022-08-21T03:22:12;11.17;;;3.83;;
15629;SDS011;7914;50.842;0.166;2022-08-21T03:24:37;10.47;;;3.63;;
15629;SDS011;7914;50.842;0.166;2022-08-21T03:27:03;10.97;;;3.77;;
15629;SDS011;7914;50.842;0.166;2022-08-21T03:29:29;9.70;;;3.60;;
15629;SDS011;7914;50.842;0.166;2022-08-21T03:31:54;9.73;;;3.80;;
15629;SDS011;7914;50.842;0.166;2022-08-21T03:34:20;9.07;;;3.73;;
15629;SDS011;7914;50.842;0.166;2022-08-21T03:36:47;10.17;;;3.60;;
15629;SDS011;7914;50.842;0.166;2022-08-21T03:39:14;8.93;;;3.80;;
15629;SDS011;7914;50.842;0.166;2022-08-21T03:41:41;10.40;;;3.60;;
15629;SDS011;7914;50.842;0.166;2022-08-21T03:44:07;8.87;;;3.43;;
15629;SDS011;7914;50.842;0.166;2022-08-21T03:46:33;11.83;;;3.90;;
15629;SDS011;7914;50.842;0.166;2022-08-21T03:48:59;10.17;;;3.60;;
15629;SDS011;7914;50.842;0.166;2022-08-21T03:51:25;11.03;;;3.57;;
15629;SDS011;7914;50.842;0.166;2022-08-21T03:53:50;8.27;;;3.50;;
15629;SDS011;7914;50.842;0.166;2022-08-21T03:56:16;14.70;;;3.63;;
15629;SDS011;7914;50.842;0.166;2022-08-21T03:58:42;7.30;;;3.23;;
15629;SDS011;7914;50.842;0.166;2022-08-21T04:01:09;9.23;;;3.63;;
15629;SDS011;7914;50.842;0.166;2022-08-21T04:03:36;12.97;;;3.90;;
15629;SDS011;7914;50.842;0.166;2022-08-21T04:06:02;9.80;;;3.40;;
15629;SDS011;7914;50.842;0.166;2022-08-21T04:08:28;12.37;;;3.90;;
15629;SDS011;7914;50.842;0.166;2022-08-21T04:10:55;9.60;;;3.63;;
15629;SDS011;7914;50.842;0.166;2022-08-21T04:13:23;9.57;;;3.60;;
15629;SDS011;7914;50.842;0.166;2022-08-21T04:15:49;13.87;;;3.70;;
15629;SDS011;7914;50.842;0.166;2022-08-21T04:18:15;9.07;;;3.73;;
15629;SDS011;7914;50.842;0.166;2022-08-21T04:20:42;10.73;;;3.00;;
15629;SDS011;7914;50.842;0.166;2022-08-21T04:23:09;12.90;;;3.70;;
15629;SDS011;7914;50.842;0.166;2022-08-21T04:25:35;9.27;;;3.40;;
15629;SDS011;7914;50.842;0.166;2022-08-21T04:28:01;12.30;;;3.77;;
15629;SDS011;7914;50.842;0.166;2022-08-21T04:30:28;8.17;;;3.43;;
15629;SDS011;7914;50.842;0.166;2022-08-21T04:32:54;10.57;;;3.47;;
15629;SDS011;7914;50.842;0.166;2022-08-21T04:35:21;5.70;;;3.17;;
15629;SDS011;7914;50.842;0.166;2022-08-21T04:37:48;10.77;;;3.53;;
15629;SDS011;7914;50.842;0.166;2022-08-21T04:40:15;8.10;;;3.80;;
15629;SDS011;7914;50.842;0.166;2022-08-21T04:42:47;15.77;;;3.50;;
15629;SDS011;7914;50.842;0.166;2022-08-21T04:45:22;7.87;;;3.20;;
15629;SDS011;7914;50.842;0.166;2022-08-21T04:47:54;9.53;;;3.70;;
15629;SDS011;7914;50.842;0.166;2022-08-21T04:50:22;9.13;;;3.90;;
15629;SDS011;7914;50.842;0.166;2022-08-21T04:52:55;7.37;;;3.70;;
15629;SDS011;7914;50.842;0.166;2022-08-21T04:55:20;9.80;;;3.63;;
15629;SDS011;7914;50.842;0.166;2022-08-21T04:57:48;9.90;;;3.80;;
15629;SDS011;7914;50.842;0.166;2022-08-21T05:00:18;9.20;;;3.90;;
15629;SDS011;7914;50.842;0.166;2022-08-21T05:02:44;9.77;;;3.70;;
15629;SDS011;7914;50.842;0.166;2022-08-21T05:05:12;8.77;;;3.97;;
15629;SDS011;7914;50.842;0.166;2022-08-21T05:07:39;8.33;;;3.90;;
15629;SDS011;7914;50.842;0.166;2022-08-21T05:10:06;8.47;;;3.93;;
15629;SDS011;7914;50.842;0.166;2022-08-21T05:12:33;6.57;;;3.80;;
15629;SDS011;7914;50.842;0.166;2022-08-21T05:14:59;12.53;;;4.40;;
15629;SDS011;7914;50.842;0.166;2022-08-21T05:17:25;12.40;;;4.10;;
15629;SDS011;7914;50.842;0.166;2022-08-21T05:19:51;7.83;;;3.67;;
15629;SDS011;7914;50.842;0.166;2022-08-21T05:22:23;11.70;;;3.97;;
15629;SDS011;7914;50.842;0.166;2022-08-21T05:24:50;14.60;;;4.37;;
15629;SDS011;7914;50.842;0.166;2022-08-21T05:27:16;10.23;;;4.40;;
15629;SDS011;7914;50.842;0.166;2022-08-21T05:29:42;10.27;;;4.27;;
15629;SDS011;7914;50.842;0.166;2022-08-21T05:32:11;15.50;;;4.27;;
15629;SDS011;7914;50.842;0.166;2022-08-21T05:34:38;9.37;;;4.20;;
15629;SDS011;7914;50.842;0.166;2022-08-21T05:37:03;9.83;;;3.80;;
15629;SDS011;7914;50.842;0.166;2022-08-21T05:39:30;11.17;;;3.80;;
15629;SDS011;7914;50.842;0.166;2022-08-21T05:41:56;8.93;;;4.37;;
15629;SDS011;7914;50.842;0.166;2022-08-21T05:44:22;9.50;;;3.97;;
15629;SDS011;7914;50.842;0.166;2022-08-21T05:46:48;11.53;;;4.60;;
15629;SDS011;7914;50.842;0.166;2022-08-21T05:49:14;13.97;;;4.33;;
15629;SDS011;7914;50.842;0.166;2022-08-21T05:51:40;10.13;;;3.80;;
15629;SDS011;7914;50.842;0.166;2022-08-21T05:54:06;10.97;;;4.70;;
15629;SDS011;7914;50.842;0.166;2022-08-21T05:56:32;9.13;;;3.57;;
15629;SDS011;7914;50.842;0.166;2022-08-21T05:58:58;10.97;;;4.13;;
15629;SDS011;7914;50.842;0.166;2022-08-21T06:01:24;11.03;;;4.63;;
15629;SDS011;7914;50.842;0.166;2022-08-21T06:03:50;10.93;;;3.93;;
15629;SDS011;7914;50.842;0.166;2022-08-21T06:06:16;13.50;;;4.30;;
15629;SDS011;7914;50.842;0.166;2022-08-21T06:08:42;10.60;;;4.30;;
15629;SDS011;7914;50.842;0.166;2022-08-21T06:11:08;7.93;;;3.93;;
15629;SDS011;7914;50.842;0.166;2022-08-21T06:13:34;11.90;;;4.40;;
15629;SDS011;7914;50.842;0.166;2022-08-21T06:16:05;9.27;;;4.10;;
15629;SDS011;7914;50.842;0.166;2022-08-21T06:18:32;8.43;;;4.00;;
15629;SDS011;7914;50.842;0.166;2022-08-21T06:20:58;13.93;;;4.30;;
15629;SDS011;7914;50.842;0.166;2022-08-21T06:23:24;11.83;;;3.63;;
15629;SDS011;7914;50.842;0.166;2022-08-21T06:25:50;14.13;;;3.83;;
15629;SDS011;7914;50.842;0.166;2022-08-21T06:28:15;10.50;;;3.67;;
15629;SDS011;7914;50.842;0.166;2022-08-21T06:30:41;11.80;;;3.63;;
15629;SDS011;7914;50.842;0.166;2022-08-21T06:33:07;11.77;;;3.93;;
15629;SDS011;7914;50.842;0.166;2022-08-21T06:35:33;14.70;;;3.80;;
15629;SDS011;7914;50.842;0.166;2022-08-21T06:38:00;13.07;;;3.73;;
15629;SDS011;7914;50.842;0.166;2022-08-21T06:40:26;9.87;;;3.73;;
15629;SDS011;7914;50.842;0.166;2022-08-21T06:42:52;12.33;;;4.03;;
15629;SDS011;7914;50.842;0.166;2022-08-21T06:45:18;13.67;;;4.00;;
15629;SDS011;7914;50.842;0.166;2022-08-21T06:47:44;15.17;;;4.00;;
15629;SDS011;7914;50.842;0.166;2022-08-21T06:50:10;12.87;;;3.50;;
15629;SDS011;7914;50.842;0.166;2022-08-21T06:52:36;9.70;;;3.60;;
15629;SDS011;7914;50.842;0.166;2022-08-21T06:55:06;9.03;;;3.40;;
15629;SDS011;7914;50.842;0.166;2022-08-21T06:57:33;9.57;;;3.20;;
15629;SDS011;7914;50.842;0.166;2022-08-21T06:59:59;10.47;;;3.73;;
15629;SDS011;7914;50.842;0.166;2022-08-21T07:02:25;10.63;;;3.40;;
15629;SDS011;7914;50.842;0.166;2022-08-21T07:04:51;10.37;;;3.50;;
15629;SDS011;7914;50.842;0.166;2022-08-21T07:07:16;10.53;;;3.07;;
15629;SDS011;7914;50.842;0.166;2022-08-21T07:09:42;9.53;;;2.90;;
15629;SDS011;7914;50.842;0.166;2022-08-21T07:12:08;9.97;;;2.87;;
15629;SDS011;7914;50.842;0.166;2022-08-21T07:14:35;11.70;;;3.37;;
15629;SDS011;7914;50.842;0.166;2022-08-21T07:17:01;10.17;;;3.27;;
15629;SDS011;7914;50.842;0.166;2022-08-21T07:19:27;10.50;;;3.23;;
15629;SDS011;7914;50.842;0.166;2022-08-21T07:21:53;8.43;;;3.00;;
15629;SDS011;7914;50.842;0.166;2022-08-21T07:24:22;9.33;;;2.97;;
15629;SDS011;7914;50.842;0.166;2022-08-21T07:26:48;12.60;;;3.03;;
15629;SDS011;7914;50.842;0.166;2022-08-21T07:29:14;12.20;;;3.00;;
15629;SDS011;7914;50.842;0.166;2022-08-21T07:31:39;12.00;;;3.10;;
15629;SDS011;7914;50.842;0.166;2022-08-21T07:34:05;10.70;;;2.93;;
15629;SDS011;7914;50.842;0.166;2022-08-21T07:36:31;9.70;;;3.00;;
15629;SDS011;7914;50.842;0.166;2022-08-21T07:38:57;11.27;;;3.07;;
15629;SDS011;7914;50.842;0.166;2022-08-21T07:41:24;13.13;;;3.20;;
15629;SDS011;7914;50.842;0.166;2022-08-21T07:43:52;9.57;;;2.83;;
15629;SDS011;7914;50.842;0.166;2022-08-21T07:46:18;10.73;;;2.85;;
15629;SDS011;7914;50.842;0.166;2022-08-21T07:48:44;10.43;;;2.95;;
15629;SDS011;7914;50.842;0.166;2022-08-21T07:51:11;8.30;;;2.70;;
15629;SDS011;7914;50.842;0.166;2022-08-21T07:53:38;9.70;;;2.75;;
15629;SDS011;7914;50.842;0.166;2022-08-21T07:56:05;12.60;;;3.35;;
15629;SDS011;7914;50.842;0.166;2022-08-21T07:58:33;9.60;;;2.70;;
15629;SDS011;7914;50.842;0.166;2022-08-21T08:00:59;15.02;;;3.47;;
15629;SDS011;7914;50.842;0.166;2022-08-21T08:03:25;10.48;;;2.50;;
15629;SDS011;7914;50.842;0.166;2022-08-21T08:05:51;9.77;;;2.72;;
15629;SDS011;7914;50.842;0.166;2022-08-21T08:08:17;10.70;;;2.95;;
15629;SDS011;7914;50.842;0.166;2022-08-21T08:10:42;9.32;;;2.80;;
15629;SDS011;7914;50.842;0.166;2022-08-21T08:13:09;12.35;;;2.90;;
15629;SDS011;7914;50.842;0.166;2022-08-21T08:15:35;10.55;;;2.72;;
15629;SDS011;7914;50.842;0.166;2022-08-21T08:18:01;12.80;;;3.05;;
15629;SDS011;7914;50.842;0.166;2022-08-21T08:20:27;10.18;;;2.90;;
15629;SDS011;7914;50.842;0.166;2022-08-21T08:22:54;10.07;;;2.83;;
15629;SDS011;7914;50.842;0.166;2022-08-21T08:25:21;11.20;;;2.70;;
15629;SDS011;7914;50.842;0.166;2022-08-21T08:27:48;12.40;;;3.13;;
15629;SDS011;7914;50.842;0.166;2022-08-21T08:30:15;7.93;;;2.78;;
15629;SDS011;7914;50.842;0.166;2022-08-21T08:32:43;9.68;;;3.15;;
15629;SDS011;7914;50.842;0.166;2022-08-21T08:35:10;12.40;;;3.38;;
15629;SDS011;7914;50.842;0.166;2022-08-21T08:37:36;11.00;;;3.08;;
15629;SDS011;7914;50.842;0.166;2022-08-21T08:40:03;12.15;;;2.92;;
15629;SDS011;7914;50.842;0.166;2022-08-21T08:42:32;11.85;;;2.88;;
15629;SDS011;7914;50.842;0.166;2022-08-21T08:45:14;12.27;;;3.00;;
15629;SDS011;7914;50.842;0.166;2022-08-21T08:47:49;7.80;;;2.72;;
15629;SDS011;7914;50.842;0.166;2022-08-21T08:50:38;11.23;;;3.00;;
15629;SDS011;7914;50.842;0.166;2022-08-21T08:53:11;10.02;;;2.90;;
15629;SDS011;7914;50.842;0.166;2022-08-21T08:55:41;13.27;;;3.10;;
15629;SDS011;7914;50.842;0.166;2022-08-21T08:58:09;10.63;;;2.83;;
15629;SDS011;7914;50.842;0.166;2022-08-21T09:00:52;14.57;;;3.20;;
15629;SDS011;7914;50.842;0.166;2022-08-21T09:03:19;13.70;;;3.13;;
15629;SDS011;7914;50.842;0.166;2022-08-21T09:05:49;14.73;;;3.15;;
15629;SDS011;7914;50.842;0.166;2022-08-21T09:22:08;11.23;;;3.28;;
15629;SDS011;7914;50.842;0.166;2022-08-21T09:24:47;10.57;;;2.80;;
15629;SDS011;7914;50.842;0.166;2022-08-21T09:27:33;13.18;;;3.33;;
15629;SDS011;7914;50.842;0.166;2022-08-21T09:29:59;10.55;;;2.80;;
15629;SDS011;7914;50.842;0.166;2022-08-21T09:32:29;10.88;;;3.03;;
15629;SDS011;7914;50.842;0.166;2022-08-21T09:37:29;11.23;;;3.00;;
15629;SDS011;7914;50.842;0.166;2022-08-21T09:39:56;7.45;;;2.67;;
15629;SDS011;7914;50.842;0.166;2022-08-21T09:42:28;8.82;;;2.80;;
15629;SDS011;7914;50.842;0.166;2022-08-21T09:45:06;13.10;;;3.70;;
15629;SDS011;7914;50.842;0.166;2022-08-21T09:47:39;9.32;;;3.00;;
15629;SDS011;7914;50.842;0.166;2022-08-21T09:50:13;10.05;;;2.97;;
15629;SDS011;7914;50.842;0.166;2022-08-21T09:52:49;9.82;;;2.78;;
15629;SDS011;7914;50.842;0.166;2022-08-21T09:55:29;11.88;;;3.25;;
15629;SDS011;7914;50.842;0.166;2022-08-21T09:58:17;13.00;;;3.28;;
15629;SDS011;7914;50.842;0.166;2022-08-21T10:00:43;8.63;;;2.72;;
15629;SDS011;7914;50.842;0.166;2022-08-21T10:03:12;10.98;;;3.00;;
15629;SDS011;7914;50.842;0.166;2022-08-21T10:05:49;12.68;;;3.30;;
15629;SDS011;7914;50.842;0.166;2022-08-21T10:08:18;11.57;;;2.50;;
15629;SDS011;7914;50.842;0.166;2022-08-21T10:10:45;11.90;;;2.92;;
15629;SDS011;7914;50.842;0.166;2022-08-21T10:13:19;10.68;;;3.65;;
15629;SDS011;7914;50.842;0.166;2022-08-21T10:16:18;10.25;;;2.90;;
15629;SDS011;7914;50.842;0.166;2022-08-21T10:19:13;8.85;;;3.13;;
15629;SDS011;7914;50.842;0.166;2022-08-21T10:24:55;10.10;;;2.90;;
15629;SDS011;7914;50.842;0.166;2022-08-21T10:30:31;11.48;;;3.00;;
15629;SDS011;7914;50.842;0.166;2022-08-21T10:41:50;15.32;;;3.13;;
15629;SDS011;7914;50.842;0.166;2022-08-21T10:47:13;9.75;;;2.97;;
15629;SDS011;7914;50.842;0.166;2022-08-21T10:55:26;10.75;;;3.05;;
15629;SDS011;7914;50.842;0.166;2022-08-21T10:57:58;10.32;;;2.95;;
15629;SDS011;7914;50.842;0.166;2022-08-21T11:00:34;20.77;;;3.78;;
15629;SDS011;7914;50.842;0.166;2022-08-21T11:06:21;8.75;;;2.70;;
15629;SDS011;7914;50.842;0.166;2022-08-21T11:08:53;11.30;;;2.60;;
15629;SDS011;7914;50.842;0.166;2022-08-21T11:14:01;11.52;;;2.88;;
15629;SDS011;7914;50.842;0.166;2022-08-21T11:16:39;13.15;;;3.42;;
15629;SDS011;7914;50.842;0.166;2022-08-21T11:19:15;9.68;;;2.90;;
15629;SDS011;7914;50.842;0.166;2022-08-21T11:22:13;12.68;;;2.80;;
15629;SDS011;7914;50.842;0.166;2022-08-21T11:27:33;11.07;;;2.67;;
15629;SDS011;7914;50.842;0.166;2022-08-21T11:30:06;11.00;;;2.85;;
15629;SDS011;7914;50.842;0.166;2022-08-21T11:43:56;10.30;;;3.13;;
15629;SDS011;7914;50.842;0.166;2022-08-21T11:49:03;12.38;;;3.13;;
15629;SDS011;7914;50.842;0.166;2022-08-21T11:51:43;11.65;;;2.53;;
15629;SDS011;7914;50.842;0.166;2022-08-21T11:54:35;12.07;;;3.25;;
15629;SDS011;7914;50.842;0.166;2022-08-21T11:57:25;10.18;;;2.97;;
15629;SDS011;7914;50.842;0.166;2022-08-21T12:00:07;9.95;;;2.63;;
15629;SDS011;7914;50.842;0.166;2022-08-21T12:02:42;8.88;;;2.85;;
15629;SDS011;7914;50.842;0.166;2022-08-21T12:05:34;8.43;;;2.70;;
15629;SDS011;7914;50.842;0.166;2022-08-21T12:08:05;9.07;;;2.53;;
15629;SDS011;7914;50.842;0.166;2022-08-21T12:10:37;9.05;;;2.80;;
15629;SDS011;7914;50.842;0.166;2022-08-21T12:13:11;8.18;;;2.40;;
15629;SDS011;7914;50.842;0.166;2022-08-21T12:15:51;10.15;;;2.83;;
15629;SDS011;7914;50.842;0.166;2022-08-21T12:18:27;9.98;;;2.78;;
15629;SDS011;7914;50.842;0.166;2022-08-21T12:29:24;6.20;;;2.30;;
15629;SDS011;7914;50.842;0.166;2022-08-21T12:34:23;8.13;;;2.20;;
15629;SDS011;7914;50.842;0.166;2022-08-21T12:37:00;8.93;;;2.60;;
15629;SDS011;7914;50.842;0.166;2022-08-21T12:39:32;10.10;;;2.53;;
15629;SDS011;7914;50.842;0.166;2022-08-21T12:42:07;6.82;;;2.55;;
15629;SDS011;7914;50.842;0.166;2022-08-21T12:44:43;7.60;;;2.63;;
15629;SDS011;7914;50.842;0.166;2022-08-21T12:50:21;10.13;;;2.70;;
15629;SDS011;7914;50.842;0.166;2022-08-21T12:53:44;8.88;;;2.63;;
15629;SDS011;7914;50.842;0.166;2022-08-21T12:55:51;11.13;;;2.90;;
15629;SDS011;7914;50.842;0.166;2022-08-21T12:58:23;12.85;;;3.20;;
15629;SDS011;7914;50.842;0.166;2022-08-21T13:00:56;10.52;;;2.80;;
15629;SDS011;7914;50.842;0.166;2022-08-21T13:03:27;7.85;;;2.88;;
15629;SDS011;7914;50.842;0.166;2022-08-21T13:05:54;10.10;;;2.53;;
15629;SDS011;7914;50.842;0.166;2022-08-21T13:08:20;12.02;;;2.60;;
15629;SDS011;7914;50.842;0.166;2022-08-21T13:10:47;8.05;;;2.50;;
15629;SDS011;7914;50.842;0.166;2022-08-21T13:13:22;7.78;;;2.33;;
15629;SDS011;7914;50.842;0.166;2022-08-21T13:15:55;10.85;;;2.70;;
15629;SDS011;7914;50.842;0.166;2022-08-21T13:18:24;10.38;;;2.72;;
15629;SDS011;7914;50.842;0.166;2022-08-21T13:20:51;10.32;;;3.05;;
15629;SDS011;7914;50.842;0.166;2022-08-21T13:23:23;7.45;;;2.33;;
15629;SDS011;7914;50.842;0.166;2022-08-21T13:25:51;10.00;;;2.90;;
15629;SDS011;7914;50.842;0.166;2022-08-21T13:28:17;9.43;;;2.47;;
15629;SDS011;7914;50.842;0.166;2022-08-21T13:30:44;6.30;;;2.38;;
15629;SDS011;7914;50.842;0.166;2022-08-21T13:33:15;9.65;;;2.75;;
15629;SDS011;7914;50.842;0.166;2022-08-21T13:35:51;9.82;;;2.60;;
15629;SDS011;7914;50.842;0.166;2022-08-21T13:38:35;10.30;;;2.83;;
15629;SDS011;7914;50.842;0.166;2022-08-21T13:41:14;9.63;;;2.60;;
15629;SDS011;7914;50.842;0.166;2022-08-21T13:43:50;9.10;;;2.60;;
15629;SDS011;7914;50.842;0.166;2022-08-21T13:46:24;11.15;;;3.15;;
15629;SDS011;7914;50.842;0.166;2022-08-21T13:48:52;11.68;;;3.00;;
15629;SDS011;7914;50.842;0.166;2022-08-21T13:51:20;12.35;;;3.22;;
15629;SDS011;7914;50.842;0.166;2022-08-21T13:53:47;13.57;;;3.40;;
15629;SDS011;7914;50.842;0.166;2022-08-21T13:58:51;12.55;;;2.80;;
15629;SDS011;7914;50.842;0.166;2022-08-21T14:01:37;8.93;;;3.05;;
15629;SDS011;7914;50.842;0.166;2022-08-21T14:04:35;6.55;;;2.45;;
15629;SDS011;7914;50.842;0.166;2022-08-21T14:07:19;10.70;;;3.20;;
15629;SDS011;7914;50.842;0.166;2022-08-21T14:09:49;9.10;;;2.85;;
15629;SDS011;7914;50.842;0.166;2022-08-21T14:12:17;16.15;;;3.08;;
15629;SDS011;7914;50.842;0.166;2022-08-21T14:14:50;12.50;;;3.28;;
15629;SDS011;7914;50.842;0.166;2022-08-21T14:17:26;12.88;;;3.55;;
15629;SDS011;7914;50.842;0.166;2022-08-21T14:20:04;10.93;;;2.92;;
15629;SDS011;7914;50.842;0.166;2022-08-21T14:22:37;10.73;;;2.92;;
15629;SDS011;7914;50.842;0.166;2022-08-21T14:25:14;10.32;;;3.17;;
15629;SDS011;7914;50.842;0.166;2022-08-21T14:27:57;10.77;;;3.03;;
15629;SDS011;7914;50.842;0.166;2022-08-21T14:30:36;14.52;;;3.53;;
15629;SDS011;7914;50.842;0.166;2022-08-21T14:33:03;12.20;;;3.03;;
15629;SDS011;7914;50.842;0.166;2022-08-21T14:35:34;13.43;;;3.05;;
15629;SDS011;7914;50.842;0.166;2022-08-21T14:37:59;8.60;;;2.70;;
15629;SDS011;7914;50.842;0.166;2022-08-21T14:40:25;10.45;;;3.00;;
15629;SDS011;7914;50.842;0.166;2022-08-21T14:42:51;9.45;;;2.97;;
15629;SDS011;7914;50.842;0.166;2022-08-21T14:47:49;10.23;;;3.05;;
15629;SDS011;7914;50.842;0.166;2022-08-21T14:50:15;9.77;;;2.60;;
15629;SDS011;7914;50.842;0.166;2022-08-21T14:52:41;11.77;;;2.85;;
15629;SDS011;7914;50.842;0.166;2022-08-21T14:55:08;9.82;;;3.00;;
15629;SDS011;7914;50.842;0.166;2022-08-21T14:57:40;15.40;;;3.70;;
15629;SDS011;7914;50.842;0.166;2022-08-21T15:00:17;8.90;;;3.00;;
15629;SDS011;7914;50.842;0.166;2022-08-21T15:02:45;10.35;;;2.88;;
15629;SDS011;7914;50.842;0.166;2022-08-21T15:05:11;11.85;;;3.17;;
15629;SDS011;7914;50.842;0.166;2022-08-21T15:07:38;10.68;;;2.95;;
15629;SDS011;7914;50.842;0.166;2022-08-21T15:10:04;11.98;;;3.28;;
15629;SDS011;7914;50.842;0.166;2022-08-21T15:12:31;10.32;;;2.22;;
15629;SDS011;7914;50.842;0.166;2022-08-21T15:14:57;11.82;;;2.97;;
15629;SDS011;7914;50.842;0.166;2022-08-21T15:17:23;9.63;;;2.55;;
15629;SDS011;7914;50.842;0.166;2022-08-21T15:19:49;8.05;;;2.78;;
15629;SDS011;7914;50.842;0.166;2022-08-21T15:22:14;10.73;;;3.22;;
15629;SDS011;7914;50.842;0.166;2022-08-21T15:24:40;8.48;;;2.95;;
15629;SDS011;7914;50.842;0.166;2022-08-21T15:27:06;11.93;;;3.30;;
15629;SDS011;7914;50.842;0.166;2022-08-21T15:29:34;10.35;;;2.75;;
15629;SDS011;7914;50.842;0.166;2022-08-21T15:32:01;11.40;;;3.20;;
15629;SDS011;7914;50.842;0.166;2022-08-21T15:34:42;10.80;;;2.90;;
15629;SDS011;7914;50.842;0.166;2022-08-21T15:37:08;11.90;;;3.17;;
15629;SDS011;7914;50.842;0.166;2022-08-21T15:39:34;13.20;;;3.20;;
15629;SDS011;7914;50.842;0.166;2022-08-21T15:42:00;10.45;;;2.78;;
15629;SDS011;7914;50.842;0.166;2022-08-21T15:44:27;11.50;;;2.67;;
15629;SDS011;7914;50.842;0.166;2022-08-21T15:46:54;9.98;;;2.50;;
15629;SDS011;7914;50.842;0.166;2022-08-21T15:49:21;13.10;;;2.90;;
15629;SDS011;7914;50.842;0.166;2022-08-21T15:51:47;11.00;;;2.63;;
15629;SDS011;7914;50.842;0.166;2022-08-21T15:54:13;9.30;;;2.75;;
15629;SDS011;7914;50.842;0.166;2022-08-21T15:56:39;10.20;;;2.83;;
15629;SDS011;7914;50.842;0.166;2022-08-21T15:59:09;9.90;;;2.72;;
15629;SDS011;7914;50.842;0.166;2022-08-21T16:01:39;8.88;;;2.80;;
15629;SDS011;7914;50.842;0.166;2022-08-21T16:04:06;11.38;;;2.92;;
15629;SDS011;7914;50.842;0.166;2022-08-21T16:06:32;8.50;;;2.70;;
15629;SDS011;7914;50.842;0.166;2022-08-21T16:08:58;14.15;;;3.03;;
15629;SDS011;7914;50.842;0.166;2022-08-21T16:11:24;11.52;;;3.00;;
15629;SDS011;7914;50.842;0.166;2022-08-21T16:13:51;7.03;;;2.35;;
15629;SDS011;7914;50.842;0.166;2022-08-21T16:16:18;9.27;;;2.88;;
15629;SDS011;7914;50.842;0.166;2022-08-21T16:18:46;13.15;;;2.88;;
15629;SDS011;7914;50.842;0.166;2022-08-21T16:21:13;7.65;;;2.83;;
15629;SDS011;7914;50.842;0.166;2022-08-21T16:23:40;11.70;;;2.80;;
15629;SDS011;7914;50.842;0.166;2022-08-21T16:26:06;7.15;;;2.60;;
15629;SDS011;7914;50.842;0.166;2022-08-21T16:28:36;15.05;;;3.65;;